sensor_id;sensor_type;location;lat;lon;timestamp;P1;durP1;ratioP1;P2;durP2;ratioP2
46447;SDS011;32145;50.390;30.778;2022-09-27T00:01:19;11.20;;;9.35;;
46447;SDS011;32145;50.390;30.778;2022-09-27T00:04:03;11.23;;;9.40;;
46447;SDS011;32145;50.390;30.778;2022-09-27T00:06:47;17.02;;;9.90;;
46447;SDS011;32145;50.390;30.778;2022-09-27T00:09:32;11.82;;;8.88;;
46447;SDS011;32145;50.390;30.778;2022-09-27T00:12:16;13.13;;;9.88;;
46447;SDS011;32145;50.390;30.778;2022-09-27T00:15:00;11.85;;;9.20;;
46447;SDS011;32145;50.390;30.778;2022-09-27T00:17:44;10.65;;;8.98;;
46447;SDS011;32145;50.390;30.778;2022-09-27T00:20:29;13.25;;;9.55;;
46447;SDS011;32145;50.390;30.778;2022-09-27T00:23:13;12.65;;;9.73;;
46447;SDS011;32145;50.390;30.778;2022-09-27T00:25:58;15.23;;;9.85;;
46447;SDS011;32145;50.390;30.778;2022-09-27T00:28:43;12.57;;;9.15;;
46447;SDS011;32145;50.390;30.778;2022-09-27T00:31:28;13.30;;;10.20;;
46447;SDS011;32145;50.390;30.778;2022-09-27T00:34:15;11.88;;;9.23;;
46447;SDS011;32145;50.390;30.778;2022-09-27T00:37:02;14.63;;;9.35;;
46447;SDS011;32145;50.390;30.778;2022-09-27T00:39:46;12.38;;;9.75;;
46447;SDS011;32145;50.390;30.778;2022-09-27T00:42:31;13.75;;;9.98;;
46447;SDS011;32145;50.390;30.778;2022-09-27T00:45:15;12.57;;;9.98;;
46447;SDS011;32145;50.390;30.778;2022-09-27T00:48:02;11.55;;;9.27;;
46447;SDS011;32145;50.390;30.778;2022-09-27T00:50:49;13.88;;;9.90;;
46447;SDS011;32145;50.390;30.778;2022-09-27T00:53:36;13.25;;;9.88;;
46447;SDS011;32145;50.390;30.778;2022-09-27T00:56:25;15.80;;;11.10;;
46447;SDS011;32145;50.390;30.778;2022-09-27T00:59:15;12.13;;;9.18;;
46447;SDS011;32145;50.390;30.778;2022-09-27T01:02:03;15.00;;;10.00;;
46447;SDS011;32145;50.390;30.778;2022-09-27T01:04:48;12.65;;;9.95;;
46447;SDS011;32145;50.390;30.778;2022-09-27T01:07:33;13.48;;;10.27;;
46447;SDS011;32145;50.390;30.778;2022-09-27T01:10:17;14.05;;;10.32;;
46447;SDS011;32145;50.390;30.778;2022-09-27T01:13:04;14.10;;;10.52;;
46447;SDS011;32145;50.390;30.778;2022-09-27T01:15:58;14.55;;;10.32;;
46447;SDS011;32145;50.390;30.778;2022-09-27T01:18:52;14.35;;;10.52;;
46447;SDS011;32145;50.390;30.778;2022-09-27T01:21:52;12.68;;;10.25;;
46447;SDS011;32145;50.390;30.778;2022-09-27T01:24:51;16.67;;;11.02;;
46447;SDS011;32145;50.390;30.778;2022-09-27T01:27:48;13.88;;;10.40;;
46447;SDS011;32145;50.390;30.778;2022-09-27T01:30:51;14.25;;;10.52;;
46447;SDS011;32145;50.390;30.778;2022-09-27T01:33:39;15.65;;;11.45;;
46447;SDS011;32145;50.390;30.778;2022-09-27T01:36:30;12.63;;;10.27;;
46447;SDS011;32145;50.390;30.778;2022-09-27T01:39:25;14.63;;;10.65;;
46447;SDS011;32145;50.390;30.778;2022-09-27T01:42:18;16.60;;;10.90;;
46447;SDS011;32145;50.390;30.778;2022-09-27T01:45:08;16.65;;;10.63;;
46447;SDS011;32145;50.390;30.778;2022-09-27T01:47:58;13.45;;;10.57;;
46447;SDS011;32145;50.390;30.778;2022-09-27T01:50:46;14.75;;;10.55;;
46447;SDS011;32145;50.390;30.778;2022-09-27T01:53:35;14.88;;;11.02;;
46447;SDS011;32145;50.390;30.778;2022-09-27T01:56:23;14.55;;;11.10;;
46447;SDS011;32145;50.390;30.778;2022-09-27T01:59:11;17.70;;;11.43;;
46447;SDS011;32145;50.390;30.778;2022-09-27T02:01:59;14.25;;;10.45;;
46447;SDS011;32145;50.390;30.778;2022-09-27T02:04:48;14.23;;;11.02;;
46447;SDS011;32145;50.390;30.778;2022-09-27T02:07:36;15.25;;;11.45;;
46447;SDS011;32145;50.390;30.778;2022-09-27T02:10:24;14.85;;;11.02;;
46447;SDS011;32145;50.390;30.778;2022-09-27T02:16:02;13.73;;;10.65;;
46447;SDS011;32145;50.390;30.778;2022-09-27T02:18:53;14.57;;;11.13;;
46447;SDS011;32145;50.390;30.778;2022-09-27T02:21:49;16.23;;;11.70;;
46447;SDS011;32145;50.390;30.778;2022-09-27T02:24:43;13.88;;;10.77;;
46447;SDS011;32145;50.390;30.778;2022-09-27T02:27:32;15.13;;;11.70;;
46447;SDS011;32145;50.390;30.778;2022-09-27T02:30:21;14.70;;;10.80;;
46447;SDS011;32145;50.390;30.778;2022-09-27T02:33:05;15.95;;;12.23;;
46447;SDS011;32145;50.390;30.778;2022-09-27T02:35:50;15.45;;;11.77;;
46447;SDS011;32145;50.390;30.778;2022-09-27T02:38:35;16.98;;;11.82;;
46447;SDS011;32145;50.390;30.778;2022-09-27T02:41:20;14.98;;;11.13;;
46447;SDS011;32145;50.390;30.778;2022-09-27T02:44:06;14.63;;;11.20;;
46447;SDS011;32145;50.390;30.778;2022-09-27T02:47:02;15.25;;;11.80;;
46447;SDS011;32145;50.390;30.778;2022-09-27T02:50:06;14.43;;;11.85;;
46447;SDS011;32145;50.390;30.778;2022-09-27T02:53:09;16.42;;;11.95;;
46447;SDS011;32145;50.390;30.778;2022-09-27T02:56:08;17.48;;;12.05;;
46447;SDS011;32145;50.390;30.778;2022-09-27T02:59:00;15.68;;;12.30;;
46447;SDS011;32145;50.390;30.778;2022-09-27T03:01:54;15.75;;;11.43;;
46447;SDS011;32145;50.390;30.778;2022-09-27T03:04:47;16.00;;;11.95;;
46447;SDS011;32145;50.390;30.778;2022-09-27T03:07:36;17.17;;;11.82;;
46447;SDS011;32145;50.390;30.778;2022-09-27T03:10:22;16.88;;;11.82;;
46447;SDS011;32145;50.390;30.778;2022-09-27T03:13:09;15.95;;;12.07;;
46447;SDS011;32145;50.390;30.778;2022-09-27T03:15:53;16.70;;;11.93;;
46447;SDS011;32145;50.390;30.778;2022-09-27T03:18:37;17.35;;;12.45;;
46447;SDS011;32145;50.390;30.778;2022-09-27T03:21:22;16.35;;;12.02;;
46447;SDS011;32145;50.390;30.778;2022-09-27T03:24:06;15.50;;;12.05;;
46447;SDS011;32145;50.390;30.778;2022-09-27T03:26:50;16.38;;;12.52;;
46447;SDS011;32145;50.390;30.778;2022-09-27T03:29:35;16.77;;;12.45;;
46447;SDS011;32145;50.390;30.778;2022-09-27T03:32:20;16.55;;;12.00;;
46447;SDS011;32145;50.390;30.778;2022-09-27T03:35:04;16.02;;;12.63;;
46447;SDS011;32145;50.390;30.778;2022-09-27T03:37:49;17.23;;;12.77;;
46447;SDS011;32145;50.390;30.778;2022-09-27T03:40:32;16.40;;;12.48;;
46447;SDS011;32145;50.390;30.778;2022-09-27T03:43:17;16.73;;;12.68;;
46447;SDS011;32145;50.390;30.778;2022-09-27T03:46:02;17.25;;;12.13;;
46447;SDS011;32145;50.390;30.778;2022-09-27T03:48:47;17.58;;;12.85;;
46447;SDS011;32145;50.390;30.778;2022-09-27T03:51:30;17.33;;;12.25;;
46447;SDS011;32145;50.390;30.778;2022-09-27T03:54:14;17.83;;;12.70;;
46447;SDS011;32145;50.390;30.778;2022-09-27T03:56:58;19.38;;;13.05;;
46447;SDS011;32145;50.390;30.778;2022-09-27T03:59:42;19.70;;;13.93;;
46447;SDS011;32145;50.390;30.778;2022-09-27T04:02:27;21.92;;;13.43;;
46447;SDS011;32145;50.390;30.778;2022-09-27T04:05:11;20.75;;;14.05;;
46447;SDS011;32145;50.390;30.778;2022-09-27T04:07:55;20.27;;;13.80;;
46447;SDS011;32145;50.390;30.778;2022-09-27T04:10:40;19.23;;;13.55;;
46447;SDS011;32145;50.390;30.778;2022-09-27T04:13:24;17.83;;;13.50;;
46447;SDS011;32145;50.390;30.778;2022-09-27T04:16:08;19.95;;;13.77;;
46447;SDS011;32145;50.390;30.778;2022-09-27T04:18:54;17.60;;;13.93;;
46447;SDS011;32145;50.390;30.778;2022-09-27T04:21:38;19.10;;;13.10;;
46447;SDS011;32145;50.390;30.778;2022-09-27T04:24:22;18.95;;;13.63;;
46447;SDS011;32145;50.390;30.778;2022-09-27T04:27:06;20.38;;;14.88;;
46447;SDS011;32145;50.390;30.778;2022-09-27T04:29:50;18.15;;;13.98;;
46447;SDS011;32145;50.390;30.778;2022-09-27T04:32:39;19.95;;;14.30;;
46447;SDS011;32145;50.390;30.778;2022-09-27T04:35:25;21.17;;;15.52;;
46447;SDS011;32145;50.390;30.778;2022-09-27T04:38:09;20.20;;;14.05;;
46447;SDS011;32145;50.390;30.778;2022-09-27T04:40:53;18.02;;;13.27;;
46447;SDS011;32145;50.390;30.778;2022-09-27T04:43:37;20.35;;;13.40;;
46447;SDS011;32145;50.390;30.778;2022-09-27T04:46:21;18.42;;;13.68;;
46447;SDS011;32145;50.390;30.778;2022-09-27T04:49:05;20.02;;;14.38;;
46447;SDS011;32145;50.390;30.778;2022-09-27T04:51:50;22.73;;;16.33;;
46447;SDS011;32145;50.390;30.778;2022-09-27T04:54:34;18.67;;;14.80;;
46447;SDS011;32145;50.390;30.778;2022-09-27T04:57:18;20.15;;;14.43;;
46447;SDS011;32145;50.390;30.778;2022-09-27T05:00:03;23.45;;;15.18;;
46447;SDS011;32145;50.390;30.778;2022-09-27T05:02:47;21.55;;;14.48;;
46447;SDS011;32145;50.390;30.778;2022-09-27T05:05:31;18.65;;;14.57;;
46447;SDS011;32145;50.390;30.778;2022-09-27T05:08:17;17.60;;;13.60;;
46447;SDS011;32145;50.390;30.778;2022-09-27T05:11:01;20.08;;;14.40;;
46447;SDS011;32145;50.390;30.778;2022-09-27T05:13:45;22.10;;;15.15;;
46447;SDS011;32145;50.390;30.778;2022-09-27T05:16:28;19.60;;;14.77;;
46447;SDS011;32145;50.390;30.778;2022-09-27T05:19:12;20.63;;;14.48;;
46447;SDS011;32145;50.390;30.778;2022-09-27T05:21:56;20.75;;;14.50;;
46447;SDS011;32145;50.390;30.778;2022-09-27T05:24:42;19.65;;;14.77;;
46447;SDS011;32145;50.390;30.778;2022-09-27T05:27:25;18.98;;;14.77;;
46447;SDS011;32145;50.390;30.778;2022-09-27T05:30:10;20.90;;;15.38;;
46447;SDS011;32145;50.390;30.778;2022-09-27T05:32:55;22.17;;;15.68;;
46447;SDS011;32145;50.390;30.778;2022-09-27T05:35:38;18.85;;;14.88;;
46447;SDS011;32145;50.390;30.778;2022-09-27T05:38:23;18.83;;;14.82;;
46447;SDS011;32145;50.390;30.778;2022-09-27T05:41:09;21.80;;;15.23;;
46447;SDS011;32145;50.390;30.778;2022-09-27T05:43:53;20.45;;;15.50;;
46447;SDS011;32145;50.390;30.778;2022-09-27T05:46:37;23.27;;;15.80;;
46447;SDS011;32145;50.390;30.778;2022-09-27T05:49:21;17.40;;;14.25;;
46447;SDS011;32145;50.390;30.778;2022-09-27T05:52:05;22.05;;;15.10;;
46447;SDS011;32145;50.390;30.778;2022-09-27T05:54:49;21.23;;;15.07;;
46447;SDS011;32145;50.390;30.778;2022-09-27T05:57:35;19.98;;;14.85;;
46447;SDS011;32145;50.390;30.778;2022-09-27T06:00:18;26.63;;;15.27;;
46447;SDS011;32145;50.390;30.778;2022-09-27T06:03:04;22.67;;;14.40;;
46447;SDS011;32145;50.390;30.778;2022-09-27T06:05:48;23.00;;;15.05;;
46447;SDS011;32145;50.390;30.778;2022-09-27T06:08:33;20.80;;;14.85;;
46447;SDS011;32145;50.390;30.778;2022-09-27T06:11:17;22.85;;;15.98;;
46447;SDS011;32145;50.390;30.778;2022-09-27T06:14:03;24.48;;;14.98;;
46447;SDS011;32145;50.390;30.778;2022-09-27T06:16:47;25.83;;;16.50;;
46447;SDS011;32145;50.390;30.778;2022-09-27T06:19:31;22.95;;;16.10;;
46447;SDS011;32145;50.390;30.778;2022-09-27T06:22:15;26.33;;;16.48;;
46447;SDS011;32145;50.390;30.778;2022-09-27T06:24:59;31.20;;;17.35;;
46447;SDS011;32145;50.390;30.778;2022-09-27T06:27:43;26.52;;;16.13;;
46447;SDS011;32145;50.390;30.778;2022-09-27T06:30:28;27.80;;;17.30;;
46447;SDS011;32145;50.390;30.778;2022-09-27T06:33:13;26.67;;;16.45;;
46447;SDS011;32145;50.390;30.778;2022-09-27T06:35:59;33.40;;;17.60;;
46447;SDS011;32145;50.390;30.778;2022-09-27T06:38:44;34.38;;;17.65;;
46447;SDS011;32145;50.390;30.778;2022-09-27T06:41:29;29.42;;;17.02;;
46447;SDS011;32145;50.390;30.778;2022-09-27T06:44:13;36.33;;;18.33;;
46447;SDS011;32145;50.390;30.778;2022-09-27T06:46:59;32.55;;;19.00;;
46447;SDS011;32145;50.390;30.778;2022-09-27T06:49:42;26.98;;;17.42;;
46447;SDS011;32145;50.390;30.778;2022-09-27T06:52:26;28.52;;;17.45;;
46447;SDS011;32145;50.390;30.778;2022-09-27T06:55:10;29.02;;;18.63;;
46447;SDS011;32145;50.390;30.778;2022-09-27T06:57:54;29.13;;;17.58;;
46447;SDS011;32145;50.390;30.778;2022-09-27T07:00:39;26.95;;;16.55;;
46447;SDS011;32145;50.390;30.778;2022-09-27T07:03:24;32.28;;;18.30;;
46447;SDS011;32145;50.390;30.778;2022-09-27T07:06:16;29.77;;;18.00;;
46447;SDS011;32145;50.390;30.778;2022-09-27T07:09:01;31.00;;;18.35;;
46447;SDS011;32145;50.390;30.778;2022-09-27T07:11:46;28.38;;;17.50;;
46447;SDS011;32145;50.390;30.778;2022-09-27T07:14:30;28.08;;;17.75;;
46447;SDS011;32145;50.390;30.778;2022-09-27T07:17:14;28.13;;;17.77;;
46447;SDS011;32145;50.390;30.778;2022-09-27T07:19:59;26.77;;;16.77;;
46447;SDS011;32145;50.390;30.778;2022-09-27T07:22:44;28.05;;;16.75;;
46447;SDS011;32145;50.390;30.778;2022-09-27T07:25:28;30.65;;;17.35;;
46447;SDS011;32145;50.390;30.778;2022-09-27T07:28:12;31.35;;;18.08;;
46447;SDS011;32145;50.390;30.778;2022-09-27T07:30:57;29.65;;;18.20;;
46447;SDS011;32145;50.390;30.778;2022-09-27T07:33:41;30.60;;;17.67;;
46447;SDS011;32145;50.390;30.778;2022-09-27T07:36:26;28.25;;;18.50;;
46447;SDS011;32145;50.390;30.778;2022-09-27T07:39:10;28.48;;;18.23;;
46447;SDS011;32145;50.390;30.778;2022-09-27T07:41:54;33.45;;;19.02;;
46447;SDS011;32145;50.390;30.778;2022-09-27T07:44:39;28.83;;;18.10;;
46447;SDS011;32145;50.390;30.778;2022-09-27T07:47:23;30.15;;;18.83;;
46447;SDS011;32145;50.390;30.778;2022-09-27T07:50:08;29.10;;;19.02;;
46447;SDS011;32145;50.390;30.778;2022-09-27T07:52:54;28.25;;;18.77;;
46447;SDS011;32145;50.390;30.778;2022-09-27T07:55:38;29.33;;;18.67;;
46447;SDS011;32145;50.390;30.778;2022-09-27T07:58:22;27.73;;;17.85;;
46447;SDS011;32145;50.390;30.778;2022-09-27T08:01:06;28.92;;;18.58;;
46447;SDS011;32145;50.390;30.778;2022-09-27T08:03:50;27.92;;;17.90;;
46447;SDS011;32145;50.390;30.778;2022-09-27T08:06:34;29.02;;;19.15;;
46447;SDS011;32145;50.390;30.778;2022-09-27T08:09:20;28.95;;;19.50;;
46447;SDS011;32145;50.390;30.778;2022-09-27T08:12:04;31.15;;;19.48;;
46447;SDS011;32145;50.390;30.778;2022-09-27T08:14:48;30.55;;;18.92;;
46447;SDS011;32145;50.390;30.778;2022-09-27T08:17:32;27.70;;;18.35;;
46447;SDS011;32145;50.390;30.778;2022-09-27T08:20:17;29.58;;;19.02;;
46447;SDS011;32145;50.390;30.778;2022-09-27T08:23:01;25.80;;;18.05;;
46447;SDS011;32145;50.390;30.778;2022-09-27T08:25:51;30.73;;;18.08;;
46447;SDS011;32145;50.390;30.778;2022-09-27T08:28:35;28.67;;;17.90;;
46447;SDS011;32145;50.390;30.778;2022-09-27T08:31:20;26.17;;;17.30;;
46447;SDS011;32145;50.390;30.778;2022-09-27T08:34:04;29.25;;;18.35;;
46447;SDS011;32145;50.390;30.778;2022-09-27T08:36:48;25.77;;;17.42;;
46447;SDS011;32145;50.390;30.778;2022-09-27T08:39:32;26.73;;;17.58;;
46447;SDS011;32145;50.390;30.778;2022-09-27T08:42:19;26.90;;;17.23;;
46447;SDS011;32145;50.390;30.778;2022-09-27T08:45:14;28.27;;;17.65;;
46447;SDS011;32145;50.390;30.778;2022-09-27T08:48:05;30.30;;;18.40;;
46447;SDS011;32145;50.390;30.778;2022-09-27T08:50:52;27.17;;;18.10;;
46447;SDS011;32145;50.390;30.778;2022-09-27T08:53:38;27.75;;;18.00;;
46447;SDS011;32145;50.390;30.778;2022-09-27T08:56:25;26.65;;;17.98;;
46447;SDS011;32145;50.390;30.778;2022-09-27T08:59:12;28.73;;;18.70;;
46447;SDS011;32145;50.390;30.778;2022-09-27T09:01:59;28.65;;;18.83;;
46447;SDS011;32145;50.390;30.778;2022-09-27T09:04:42;29.23;;;19.35;;
46447;SDS011;32145;50.390;30.778;2022-09-27T09:07:39;30.97;;;19.90;;
46447;SDS011;32145;50.390;30.778;2022-09-27T09:10:34;31.95;;;19.15;;
46447;SDS011;32145;50.390;30.778;2022-09-27T09:13:35;31.98;;;19.45;;
46447;SDS011;32145;50.390;30.778;2022-09-27T09:16:33;28.60;;;19.55;;
46447;SDS011;32145;50.390;30.778;2022-09-27T09:19:31;28.13;;;19.92;;
46447;SDS011;32145;50.390;30.778;2022-09-27T09:22:30;28.13;;;19.98;;
46447;SDS011;32145;50.390;30.778;2022-09-27T09:25:26;32.67;;;21.77;;
46447;SDS011;32145;50.390;30.778;2022-09-27T09:28:20;33.50;;;22.20;;
46447;SDS011;32145;50.390;30.778;2022-09-27T09:31:14;29.40;;;21.73;;
46447;SDS011;32145;50.390;30.778;2022-09-27T09:34:08;34.67;;;23.17;;
46447;SDS011;32145;50.390;30.778;2022-09-27T09:36:57;28.73;;;21.95;;
46447;SDS011;32145;50.390;30.778;2022-09-27T09:39:46;33.15;;;22.63;;
46447;SDS011;32145;50.390;30.778;2022-09-27T09:42:34;32.08;;;23.75;;
46447;SDS011;32145;50.390;30.778;2022-09-27T09:45:23;31.50;;;24.00;;
46447;SDS011;32145;50.390;30.778;2022-09-27T09:48:13;33.03;;;23.20;;
46447;SDS011;32145;50.390;30.778;2022-09-27T09:51:05;30.60;;;22.92;;
46447;SDS011;32145;50.390;30.778;2022-09-27T09:53:55;31.00;;;23.00;;
46447;SDS011;32145;50.390;30.778;2022-09-27T09:56:46;34.17;;;23.85;;
46447;SDS011;32145;50.390;30.778;2022-09-27T09:59:37;34.38;;;24.13;;
46447;SDS011;32145;50.390;30.778;2022-09-27T10:02:27;37.40;;;24.90;;
46447;SDS011;32145;50.390;30.778;2022-09-27T10:05:17;32.58;;;24.55;;
46447;SDS011;32145;50.390;30.778;2022-09-27T10:08:04;31.42;;;23.85;;
46447;SDS011;32145;50.390;30.778;2022-09-27T10:10:55;32.10;;;24.05;;
46447;SDS011;32145;50.390;30.778;2022-09-27T10:13:39;36.92;;;24.05;;
46447;SDS011;32145;50.390;30.778;2022-09-27T10:16:23;34.72;;;25.25;;
46447;SDS011;32145;50.390;30.778;2022-09-27T10:19:08;37.53;;;27.80;;
46447;SDS011;32145;50.390;30.778;2022-09-27T10:21:55;36.20;;;26.92;;
46447;SDS011;32145;50.390;30.778;2022-09-27T10:24:56;35.25;;;26.33;;
46447;SDS011;32145;50.390;30.778;2022-09-27T10:27:42;41.33;;;28.20;;
46447;SDS011;32145;50.390;30.778;2022-09-27T10:30:28;45.75;;;29.17;;
46447;SDS011;32145;50.390;30.778;2022-09-27T10:33:15;42.10;;;28.48;;
46447;SDS011;32145;50.390;30.778;2022-09-27T10:36:01;37.58;;;26.00;;
46447;SDS011;32145;50.390;30.778;2022-09-27T10:38:50;36.75;;;26.65;;
46447;SDS011;32145;50.390;30.778;2022-09-27T10:41:37;35.50;;;25.17;;
46447;SDS011;32145;50.390;30.778;2022-09-27T10:44:26;35.97;;;26.10;;
46447;SDS011;32145;50.390;30.778;2022-09-27T10:47:12;32.55;;;24.10;;
46447;SDS011;32145;50.390;30.778;2022-09-27T10:50:04;36.80;;;27.65;;
46447;SDS011;32145;50.390;30.778;2022-09-27T10:52:49;39.63;;;28.80;;
46447;SDS011;32145;50.390;30.778;2022-09-27T10:55:45;41.47;;;27.50;;
46447;SDS011;32145;50.390;30.778;2022-09-27T10:58:33;40.90;;;27.55;;
46447;SDS011;32145;50.390;30.778;2022-09-27T11:01:20;39.67;;;26.55;;
46447;SDS011;32145;50.390;30.778;2022-09-27T11:04:05;42.45;;;27.48;;
46447;SDS011;32145;50.390;30.778;2022-09-27T11:06:50;39.25;;;28.65;;
46447;SDS011;32145;50.390;30.778;2022-09-27T11:09:43;36.70;;;26.23;;
46447;SDS011;32145;50.390;30.778;2022-09-27T11:12:29;38.17;;;25.80;;
46447;SDS011;32145;50.390;30.778;2022-09-27T11:15:15;37.15;;;25.73;;
46447;SDS011;32145;50.390;30.778;2022-09-27T11:18:01;38.45;;;26.92;;
46447;SDS011;32145;50.390;30.778;2022-09-27T11:20:54;38.50;;;27.60;;
46447;SDS011;32145;50.390;30.778;2022-09-27T11:23:49;36.40;;;27.25;;
46447;SDS011;32145;50.390;30.778;2022-09-27T11:26:44;36.72;;;25.80;;
46447;SDS011;32145;50.390;30.778;2022-09-27T11:29:43;34.25;;;24.10;;
46447;SDS011;32145;50.390;30.778;2022-09-27T11:32:46;35.30;;;25.17;;
46447;SDS011;32145;50.390;30.778;2022-09-27T11:35:48;33.85;;;25.88;;
46447;SDS011;32145;50.390;30.778;2022-09-27T11:38:44;41.53;;;27.20;;
46447;SDS011;32145;50.390;30.778;2022-09-27T11:41:43;34.95;;;25.80;;
46447;SDS011;32145;50.390;30.778;2022-09-27T11:44:41;35.25;;;26.25;;
46447;SDS011;32145;50.390;30.778;2022-09-27T11:47:36;36.08;;;27.05;;
46447;SDS011;32145;50.390;30.778;2022-09-27T11:50:35;34.90;;;25.17;;
46447;SDS011;32145;50.390;30.778;2022-09-27T11:56:49;32.20;;;24.95;;
46447;SDS011;32145;50.390;30.778;2022-09-27T11:59:55;29.17;;;22.63;;
46447;SDS011;32145;50.390;30.778;2022-09-27T12:03:01;30.48;;;23.00;;
46447;SDS011;32145;50.390;30.778;2022-09-27T12:06:08;26.75;;;21.10;;
46447;SDS011;32145;50.390;30.778;2022-09-27T12:09:00;27.17;;;21.42;;
46447;SDS011;32145;50.390;30.778;2022-09-27T12:11:49;25.92;;;20.42;;
46447;SDS011;32145;50.390;30.778;2022-09-27T12:14:38;23.50;;;18.60;;
46447;SDS011;32145;50.390;30.778;2022-09-27T12:17:26;27.17;;;19.63;;
46447;SDS011;32145;50.390;30.778;2022-09-27T12:20:15;26.67;;;20.35;;
46447;SDS011;32145;50.390;30.778;2022-09-27T12:23:06;26.70;;;19.95;;
46447;SDS011;32145;50.390;30.778;2022-09-27T12:25:58;24.88;;;18.70;;
46447;SDS011;32145;50.390;30.778;2022-09-27T12:28:50;24.98;;;19.65;;
46447;SDS011;32145;50.390;30.778;2022-09-27T12:31:39;22.03;;;17.23;;
46447;SDS011;32145;50.390;30.778;2022-09-27T12:34:29;22.92;;;18.60;;
46447;SDS011;32145;50.390;30.778;2022-09-27T12:37:20;22.60;;;17.02;;
46447;SDS011;32145;50.390;30.778;2022-09-27T12:40:14;20.92;;;16.38;;
46447;SDS011;32145;50.390;30.778;2022-09-27T12:43:02;20.77;;;15.07;;
46447;SDS011;32145;50.390;30.778;2022-09-27T12:45:53;20.08;;;17.05;;
46447;SDS011;32145;50.390;30.778;2022-09-27T12:48:49;19.95;;;15.18;;
46447;SDS011;32145;50.390;30.778;2022-09-27T12:51:39;18.55;;;14.48;;
46447;SDS011;32145;50.390;30.778;2022-09-27T12:57:55;18.73;;;15.63;;
46447;SDS011;32145;50.390;30.778;2022-09-27T13:01:03;23.27;;;17.27;;
46447;SDS011;32145;50.390;30.778;2022-09-27T13:04:08;22.98;;;16.73;;
46447;SDS011;32145;50.390;30.778;2022-09-27T13:07:09;22.95;;;17.38;;
46447;SDS011;32145;50.390;30.778;2022-09-27T13:10:06;24.48;;;18.05;;
46447;SDS011;32145;50.390;30.778;2022-09-27T13:13:04;23.35;;;17.25;;
46447;SDS011;32145;50.390;30.778;2022-09-27T13:15:56;21.58;;;17.98;;
46447;SDS011;32145;50.390;30.778;2022-09-27T13:18:49;22.98;;;18.65;;
46447;SDS011;32145;50.390;30.778;2022-09-27T13:21:57;26.38;;;19.85;;
46447;SDS011;32145;50.390;30.778;2022-09-27T13:24:47;27.08;;;18.63;;
46447;SDS011;32145;50.390;30.778;2022-09-27T13:27:35;24.33;;;19.67;;
46447;SDS011;32145;50.390;30.778;2022-09-27T13:33:40;26.33;;;19.70;;
46447;SDS011;32145;50.390;30.778;2022-09-27T13:36:28;23.98;;;19.08;;
46447;SDS011;32145;50.390;30.778;2022-09-27T13:39:18;26.52;;;20.17;;
46447;SDS011;32145;50.390;30.778;2022-09-27T13:42:05;23.90;;;19.50;;
46447;SDS011;32145;50.390;30.778;2022-09-27T13:45:12;23.50;;;19.23;;
46447;SDS011;32145;50.390;30.778;2022-09-27T13:48:08;26.67;;;20.73;;
46447;SDS011;32145;50.390;30.778;2022-09-27T13:51:00;30.25;;;22.42;;
46447;SDS011;32145;50.390;30.778;2022-09-27T13:53:54;36.17;;;25.83;;
46447;SDS011;32145;50.390;30.778;2022-09-27T13:56:50;44.85;;;27.15;;
46447;SDS011;32145;50.390;30.778;2022-09-27T13:59:36;49.33;;;30.63;;
46447;SDS011;32145;50.390;30.778;2022-09-27T14:02:24;47.45;;;29.02;;
46447;SDS011;32145;50.390;30.778;2022-09-27T14:05:16;44.90;;;30.83;;
46447;SDS011;32145;50.390;30.778;2022-09-27T14:08:03;47.13;;;30.73;;
46447;SDS011;32145;50.390;30.778;2022-09-27T14:10:47;49.75;;;31.92;;
46447;SDS011;32145;50.390;30.778;2022-09-27T14:13:32;51.28;;;31.15;;
46447;SDS011;32145;50.390;30.778;2022-09-27T14:16:17;47.40;;;30.73;;
46447;SDS011;32145;50.390;30.778;2022-09-27T14:19:01;53.72;;;33.03;;
46447;SDS011;32145;50.390;30.778;2022-09-27T14:21:48;55.80;;;33.17;;
46447;SDS011;32145;50.390;30.778;2022-09-27T14:24:42;52.17;;;33.00;;
46447;SDS011;32145;50.390;30.778;2022-09-27T14:27:28;53.95;;;33.60;;
46447;SDS011;32145;50.390;30.778;2022-09-27T14:30:18;52.97;;;33.08;;
46447;SDS011;32145;50.390;30.778;2022-09-27T14:33:03;52.05;;;32.55;;
46447;SDS011;32145;50.390;30.778;2022-09-27T14:35:47;54.53;;;33.13;;
46447;SDS011;32145;50.390;30.778;2022-09-27T14:38:34;50.40;;;32.65;;
46447;SDS011;32145;50.390;30.778;2022-09-27T14:41:18;53.80;;;33.00;;
46447;SDS011;32145;50.390;30.778;2022-09-27T14:44:02;54.78;;;32.95;;
46447;SDS011;32145;50.390;30.778;2022-09-27T14:46:47;54.90;;;33.78;;
46447;SDS011;32145;50.390;30.778;2022-09-27T14:49:49;54.20;;;32.53;;
46447;SDS011;32145;50.390;30.778;2022-09-27T14:52:37;53.22;;;32.60;;
46447;SDS011;32145;50.390;30.778;2022-09-27T14:55:23;55.55;;;32.97;;
46447;SDS011;32145;50.390;30.778;2022-09-27T14:58:10;56.85;;;32.75;;
46447;SDS011;32145;50.390;30.778;2022-09-27T15:00:57;51.13;;;33.00;;
46447;SDS011;32145;50.390;30.778;2022-09-27T15:03:41;52.58;;;32.72;;
46447;SDS011;32145;50.390;30.778;2022-09-27T15:06:27;51.70;;;31.95;;
46447;SDS011;32145;50.390;30.778;2022-09-27T15:09:12;51.92;;;32.33;;
46447;SDS011;32145;50.390;30.778;2022-09-27T15:12:00;54.97;;;31.95;;
46447;SDS011;32145;50.390;30.778;2022-09-27T15:14:44;53.83;;;31.80;;
46447;SDS011;32145;50.390;30.778;2022-09-27T15:17:39;58.90;;;35.40;;
46447;SDS011;32145;50.390;30.778;2022-09-27T15:20:25;54.08;;;33.28;;
46447;SDS011;32145;50.390;30.778;2022-09-27T15:23:23;52.40;;;31.58;;
46447;SDS011;32145;50.390;30.778;2022-09-27T15:26:12;57.72;;;31.85;;
46447;SDS011;32145;50.390;30.778;2022-09-27T15:29:00;51.08;;;32.33;;
46447;SDS011;32145;50.390;30.778;2022-09-27T15:31:44;54.67;;;31.25;;
46447;SDS011;32145;50.390;30.778;2022-09-27T15:34:28;55.42;;;32.00;;
46447;SDS011;32145;50.390;30.778;2022-09-27T15:37:22;53.80;;;31.20;;
46447;SDS011;32145;50.390;30.778;2022-09-27T15:43:27;51.97;;;31.42;;
46447;SDS011;32145;50.390;30.778;2022-09-27T15:46:28;51.72;;;31.88;;
46447;SDS011;32145;50.390;30.778;2022-09-27T15:49:22;54.30;;;31.70;;
46447;SDS011;32145;50.390;30.778;2022-09-27T15:52:11;52.28;;;32.63;;
46447;SDS011;32145;50.390;30.778;2022-09-27T15:55:24;57.58;;;32.13;;
46447;SDS011;32145;50.390;30.778;2022-09-27T15:58:11;50.65;;;30.15;;
46447;SDS011;32145;50.390;30.778;2022-09-27T16:00:59;57.33;;;30.33;;
46447;SDS011;32145;50.390;30.778;2022-09-27T16:03:46;54.05;;;30.40;;
46447;SDS011;32145;50.390;30.778;2022-09-27T16:06:30;54.30;;;30.05;;
46447;SDS011;32145;50.390;30.778;2022-09-27T16:09:15;50.42;;;29.73;;
46447;SDS011;32145;50.390;30.778;2022-09-27T16:12:00;50.03;;;29.90;;
46447;SDS011;32145;50.390;30.778;2022-09-27T16:14:44;57.70;;;31.95;;
46447;SDS011;32145;50.390;30.778;2022-09-27T16:17:28;54.22;;;29.88;;
46447;SDS011;32145;50.390;30.778;2022-09-27T16:20:16;54.13;;;31.13;;
46447;SDS011;32145;50.390;30.778;2022-09-27T16:25:46;55.03;;;30.98;;
46447;SDS011;32145;50.390;30.778;2022-09-27T16:28:30;56.92;;;31.13;;